Main page
METAR-TAF:

METAR-TAF

Airports :

RNAS Yeovilton (HMS Heron)

Yeovilton, England

latitude: 51-00N, longitude: 002-38W, elevation: 23 m

Current weather observation

The report was made 52 minutes ago, at 04:50 UTC
Wind 2 kt from the South/Southeast
Temperature 11°C
Humidity 94%
Pressure 1016 hPa
Visibility 10 km or more
no clouds below 1500 m and no cumulonimbus

METAR: EGDY 170450Z 16002KT CAVOK 11/10 Q1016 BLU NOSIG

Time: 06:42 (05:42 UTC)

Forecast

The report was made 1 hour and 7 minutes ago, at 04:35 UTC
Forecast valid from 17 at 06 UTC to 17 at 15 UTC
Wind 10 kt from the West
Visibility 10 km or more
Scattered clouds at a height of 4000 ft
Probability 40% :
Temporary
from 17 at 11 UTC to 17 at 15 UTC
Visibility: 7000 m
Broken clouds at a height of 3500 ft
light rain showers

TAF: EGDY 170435Z 1706/1715 26010KT 9999 SCT040 PROB40 TEMPO 1711/1715 7000 -SHRA BKN035

Weather observations and forecasts of more than 4000 airports (METAR and TAF reports).

The available stations are represented by yellow and red dots on the map.

Hover mouse over dot to see the name of the station.

Then click to see weather observations and forecasts.

To change the map : click on the green buttons with a black cross to zoom in, on the green button with a dash to zoom out, or on the green arrows for adjacent maps.


METAR-TAF: